Weather at Gran Canaria Airport

Public forecast

Using degrees Celsius for public forecast. Weather courtesy of forecast.io.

Current aviation weather report (METAR) for Gran Canaria Airport

2024/04/12 16:30 (retrieved 28 minutes ago)

GCLP 121630Z 03018KT CAVOK 24/18 Q1016 NOSIG

Aviation forecast (TAF) for Gran Canaria Airport

2024/04/12 15:27 (retrieved 2 hours ago)

TAF GCLP 121400Z 1215/1315 03013KT 9000 NSC TX27/1314Z TN20/1306Z